createdAt,value
2023-01-17T00:01:47.291Z,9.90
2023-01-17T00:04:32.729Z,7.73
2023-01-17T00:07:18.233Z,8.60
2023-01-17T00:09:54.085Z,8.30
2023-01-17T00:12:22.154Z,9.37
2023-01-17T00:14:49.336Z,9.20
2023-01-17T00:17:16.298Z,9.60
2023-01-17T00:20:02.113Z,8.77
2023-01-17T00:22:49.208Z,8.87
2023-01-17T00:25:47.465Z,8.30
2023-01-17T00:28:14.420Z,7.27
2023-01-17T00:30:41.189Z,7.67
2023-01-17T00:33:08.277Z,7.57
2023-01-17T00:35:35.177Z,8.10
2023-01-17T00:38:12.191Z,7.57
2023-01-17T00:40:41.525Z,8.30
2023-01-17T00:43:27.898Z,7.27
2023-01-17T00:46:13.740Z,7.13
2023-01-17T00:48:59.702Z,7.40
2023-01-17T00:51:45.895Z,6.63
2023-01-17T00:54:31.485Z,6.30
2023-01-17T00:57:16.888Z,7.40
2023-01-17T01:00:02.616Z,7.50
2023-01-17T01:02:48.790Z,6.77
2023-01-17T01:05:34.891Z,7.90
2023-01-17T01:08:21.065Z,7.30
2023-01-17T01:11:07.504Z,6.53
2023-01-17T01:13:53.112Z,6.03
2023-01-17T01:16:38.908Z,6.40
2023-01-17T01:19:24.588Z,6.30
2023-01-17T01:22:10.130Z,6.10
2023-01-17T01:24:55.427Z,5.73
2023-01-17T01:27:44.103Z,6.17
2023-01-17T01:30:32.515Z,5.23
2023-01-17T01:33:18.363Z,3.70
2023-01-17T01:35:50.536Z,5.80
2023-01-17T01:38:19.107Z,5.57
2023-01-17T01:40:49.002Z,5.40
2023-01-17T01:43:18.382Z,5.70
2023-01-17T01:45:51.095Z,5.37
2023-01-17T01:48:33.701Z,5.77
2023-01-17T01:51:04.080Z,6.17
2023-01-17T01:53:34.771Z,5.57
2023-01-17T01:56:03.465Z,5.93
2023-01-17T01:58:34.188Z,5.93
2023-01-17T02:01:01.025Z,5.57
2023-01-17T02:03:31.900Z,5.80
2023-01-17T02:06:34.520Z,6.20
2023-01-17T02:09:07.642Z,6.27
2023-01-17T02:11:37.404Z,6.10
2023-01-17T02:14:04.331Z,4.20
2023-01-17T02:16:43.878Z,6.70
2023-01-17T02:19:25.641Z,5.93
2023-01-17T02:22:35.222Z,6.17
2023-01-17T02:25:16.720Z,5.93
2023-01-17T02:28:20.509Z,4.77
2023-01-17T02:31:19.622Z,5.93
2023-01-17T02:34:07.445Z,5.33
2023-01-17T02:36:41.923Z,6.10
2023-01-17T02:39:33.769Z,5.83
2023-01-17T02:42:08.139Z,5.70
2023-01-17T02:44:41.686Z,5.80
2023-01-17T02:47:26.501Z,5.73
2023-01-17T02:50:02.118Z,5.00
2023-01-17T02:52:54.553Z,4.80
2023-01-17T02:55:34.497Z,4.43
2023-01-17T02:58:36.388Z,3.90
2023-01-17T03:01:22.181Z,3.50
2023-01-17T03:03:58.708Z,3.80
2023-01-17T03:06:43.480Z,2.90
2023-01-17T03:09:10.732Z,2.57
2023-01-17T03:11:37.718Z,2.90
2023-01-17T03:14:04.470Z,2.73
2023-01-17T03:16:34.332Z,2.67
2023-01-17T03:19:01.648Z,2.43
2023-01-17T03:21:28.466Z,2.40
2023-01-17T03:23:55.867Z,2.47
2023-01-17T03:26:22.641Z,2.40
2023-01-17T03:28:49.376Z,2.60
2023-01-17T03:31:20.433Z,2.40
2023-01-17T03:33:47.450Z,2.60
2023-01-17T03:36:14.645Z,2.60
2023-01-17T03:38:41.643Z,2.20
2023-01-17T03:41:08.759Z,2.03
2023-01-17T03:43:35.481Z,2.10
2023-01-17T03:46:07.713Z,1.80
2023-01-17T03:48:34.723Z,1.60
2023-01-17T03:51:01.738Z,1.23
2023-01-17T03:53:28.499Z,1.40
2023-01-17T03:55:55.465Z,1.13
2023-01-17T03:58:22.358Z,1.20
2023-01-17T04:00:49.269Z,0.80
2023-01-17T04:03:15.996Z,0.60
2023-01-17T04:05:42.745Z,0.70
2023-01-17T04:08:09.563Z,0.50
2023-01-17T04:10:36.487Z,0.40
2023-01-17T04:13:03.300Z,0.50
2023-01-17T04:15:30.672Z,0.40
2023-01-17T04:17:57.903Z,0.40
2023-01-17T04:20:35.145Z,0.47
2023-01-17T04:23:02.038Z,0.30
2023-01-17T04:25:30.794Z,0.40
2023-01-17T04:27:59.241Z,0.30
2023-01-17T04:30:30.156Z,0.30
2023-01-17T04:32:57.379Z,0.40
2023-01-17T04:35:24.692Z,0.53
2023-01-17T04:37:54.412Z,0.27
2023-01-17T04:40:23.353Z,0.30
2023-01-17T04:42:54.502Z,0.10
2023-01-17T04:45:21.375Z,0.20
2023-01-17T04:47:48.178Z,0.20
2023-01-17T04:50:15.412Z,0.10
2023-01-17T04:52:42.304Z,0.57
2023-01-17T04:55:09.404Z,0.10
2023-01-17T04:57:36.303Z,0.20
2023-01-17T05:00:06.731Z,0.20
2023-01-17T05:02:33.954Z,0.30
2023-01-17T05:05:00.869Z,0.30
2023-01-17T05:07:27.897Z,0.20
2023-01-17T05:09:54.669Z,0.33
2023-01-17T05:12:21.478Z,0.30
2023-01-17T05:14:48.819Z,0.30
2023-01-17T05:17:15.587Z,0.30
2023-01-17T05:19:42.318Z,0.50
2023-01-17T05:22:18.069Z,0.50
2023-01-17T05:24:46.484Z,0.40
2023-01-17T05:27:14.543Z,0.47
2023-01-17T05:29:41.675Z,0.30
2023-01-17T05:32:08.700Z,0.40
2023-01-17T05:34:35.581Z,0.43
2023-01-17T05:37:02.483Z,0.50
2023-01-17T05:39:30.917Z,0.60
2023-01-17T05:41:59.499Z,0.40
2023-01-17T05:44:27.985Z,0.40
2023-01-17T05:46:55.205Z,0.40
2023-01-17T05:49:24.039Z,0.50
2023-01-17T05:51:52.408Z,0.30
2023-01-17T05:54:20.994Z,0.50
2023-01-17T05:56:47.821Z,0.70
2023-01-17T05:59:14.814Z,0.90
2023-01-17T06:01:43.509Z,0.73
2023-01-17T06:04:10.330Z,0.60
2023-01-17T06:06:43.634Z,0.70
2023-01-17T06:09:14.252Z,0.80
2023-01-17T06:11:41.068Z,1.10
2023-01-17T06:14:08.810Z,0.90
2023-01-17T06:16:36.275Z,1.10
2023-01-17T06:19:03.181Z,1.37
2023-01-17T06:21:30.793Z,1.00
2023-01-17T06:23:57.568Z,1.20
2023-01-17T06:26:24.402Z,1.07
2023-01-17T06:28:51.164Z,1.20
2023-01-17T06:31:18.503Z,1.50
2023-01-17T06:33:45.550Z,1.50
2023-01-17T06:36:12.346Z,1.47
2023-01-17T06:38:39.042Z,1.60
2023-01-17T06:41:06.350Z,1.80
2023-01-17T06:43:34.977Z,1.80
2023-01-17T06:46:02.235Z,1.97
2023-01-17T06:48:29.052Z,2.00
2023-01-17T06:50:58.273Z,2.30
2023-01-17T06:53:25.274Z,1.70
2023-01-17T06:55:55.095Z,2.23
2023-01-17T06:58:21.864Z,2.33
2023-01-17T07:00:48.653Z,2.60
2023-01-17T07:03:24.422Z,2.80
2023-01-17T07:05:52.162Z,2.83
2023-01-17T07:08:20.533Z,2.67
2023-01-17T07:10:48.231Z,2.90
2023-01-17T07:13:15.168Z,2.63
2023-01-17T07:15:42.249Z,3.47
2023-01-17T07:18:09.210Z,3.83
2023-01-17T07:20:36.079Z,3.20
2023-01-17T07:23:03.180Z,3.73
2023-01-17T07:25:30.055Z,3.73
2023-01-17T07:27:57.769Z,3.70
2023-01-17T07:30:24.988Z,3.67
2023-01-17T07:32:55.461Z,3.83
2023-01-17T07:35:23.585Z,3.60
2023-01-17T07:37:51.689Z,3.90
2023-01-17T07:40:20.134Z,3.60
2023-01-17T07:42:47.477Z,3.70
2023-01-17T07:45:16.207Z,3.63
2023-01-17T07:47:43.087Z,3.97
2023-01-17T07:50:10.542Z,3.87
2023-01-17T07:52:37.335Z,3.90
2023-01-17T07:55:05.126Z,3.80
2023-01-17T07:57:32.730Z,3.67
2023-01-17T07:59:59.592Z,2.90
2023-01-17T08:02:26.610Z,4.00
2023-01-17T08:04:53.619Z,3.63
2023-01-17T08:07:20.603Z,3.87
2023-01-17T08:09:49.794Z,4.13
2023-01-17T08:12:17.537Z,4.10
2023-01-17T08:14:44.963Z,3.40
2023-01-17T08:17:17.093Z,3.90
2023-01-17T08:19:45.020Z,4.30
2023-01-17T08:22:14.594Z,4.27
2023-01-17T08:24:42.163Z,3.97
2023-01-17T08:27:09.217Z,3.37
2023-01-17T08:29:36.590Z,4.23
2023-01-17T08:32:05.543Z,3.27
2023-01-17T08:34:33.789Z,3.60
2023-01-17T08:37:01.180Z,3.47
2023-01-17T08:39:28.858Z,3.90
2023-01-17T08:41:57.493Z,3.50
2023-01-17T08:44:24.753Z,3.73
2023-01-17T08:46:52.025Z,3.60
2023-01-17T08:49:19.206Z,3.50
2023-01-17T08:51:46.300Z,3.90
2023-01-17T08:54:15.307Z,3.03
2023-01-17T08:56:47.013Z,3.77
2023-01-17T08:59:14.025Z,3.80
2023-01-17T09:01:45.978Z,2.73
2023-01-17T09:04:14.478Z,3.60
2023-01-17T09:06:45.649Z,3.10
2023-01-17T09:09:14.050Z,3.50
2023-01-17T09:11:43.775Z,3.20
2023-01-17T09:14:13.158Z,3.30
2023-01-17T09:16:47.299Z,3.50
2023-01-17T09:22:55.326Z,3.30
2023-01-17T09:25:22.704Z,3.40
2023-01-17T09:27:50.535Z,3.20
2023-01-17T09:30:17.747Z,3.27
2023-01-17T09:32:44.740Z,3.90
2023-01-17T09:35:11.880Z,3.80
2023-01-17T09:37:39.166Z,3.80
2023-01-17T09:40:07.200Z,3.60
2023-01-17T09:42:40.441Z,4.53
2023-01-17T09:45:19.411Z,3.97
2023-01-17T09:47:51.399Z,3.43
2023-01-17T09:50:49.603Z,4.70
2023-01-17T09:53:21.157Z,3.90
2023-01-17T09:55:52.482Z,4.67
2023-01-17T09:58:23.969Z,4.30
2023-01-17T10:01:00.272Z,3.80
2023-01-17T10:03:41.183Z,4.30
2023-01-17T10:06:45.401Z,3.93
2023-01-17T10:09:37.660Z,4.10
2023-01-17T10:12:26.144Z,5.07
2023-01-17T10:15:30.743Z,4.70
2023-01-17T10:18:16.606Z,5.77
2023-01-17T10:21:17.032Z,4.30
2023-01-17T10:23:47.020Z,4.83
2023-01-17T10:26:22.308Z,4.90
2023-01-17T10:28:51.776Z,5.27
2023-01-17T10:31:23.274Z,5.17
2023-01-17T10:33:58.306Z,5.50
2023-01-17T10:36:27.773Z,6.13
2023-01-17T10:39:01.557Z,6.13
2023-01-17T10:41:48.083Z,5.50
2023-01-17T10:44:42.751Z,5.00
2023-01-17T10:47:18.425Z,6.07
2023-01-17T10:49:48.885Z,6.37
2023-01-17T10:52:37.847Z,5.90
2023-01-17T10:55:25.083Z,5.43
2023-01-17T10:57:53.837Z,5.80
2023-01-17T11:00:44.230Z,5.93
2023-01-17T11:03:13.547Z,5.67
2023-01-17T11:05:43.059Z,5.97
2023-01-17T11:08:14.880Z,5.53
2023-01-17T11:10:57.453Z,5.27
2023-01-17T11:13:34.299Z,6.00
2023-01-17T11:16:08.830Z,6.10
2023-01-17T11:18:40.840Z,5.77
2023-01-17T11:21:23.347Z,5.83
2023-01-17T11:23:56.783Z,6.40
2023-01-17T11:26:31.116Z,6.47
2023-01-17T11:29:17.248Z,7.70
2023-01-17T11:31:44.424Z,6.40
2023-01-17T11:34:26.323Z,7.13
2023-01-17T11:37:17.456Z,7.20
2023-01-17T11:39:48.046Z,7.20
2023-01-17T11:42:36.900Z,8.40
2023-01-17T11:45:25.252Z,7.83
2023-01-17T11:48:13.520Z,7.70
2023-01-17T11:50:48.006Z,8.83
2023-01-17T11:53:34.329Z,7.37
2023-01-17T11:56:10.407Z,8.57
2023-01-17T11:58:42.564Z,8.23
2023-01-17T12:01:18.048Z,7.53
2023-01-17T12:03:51.159Z,7.53
2023-01-17T12:06:32.770Z,7.57
2023-01-17T12:09:15.711Z,7.40
2023-01-17T12:12:15.882Z,7.10
2023-01-17T12:15:06.678Z,7.00
2023-01-17T12:17:39.483Z,7.37
2023-01-17T12:20:31.600Z,7.37
2023-01-17T12:23:08.344Z,7.40
2023-01-17T12:26:06.481Z,7.50
2023-01-17T12:28:46.241Z,8.27
2023-01-17T12:31:38.844Z,8.43
2023-01-17T12:34:26.205Z,8.87
2023-01-17T12:36:57.053Z,8.93
2023-01-17T12:39:34.313Z,9.13
2023-01-17T12:42:13.458Z,10.00
2023-01-17T12:44:57.932Z,9.87
2023-01-17T12:47:25.485Z,9.97
2023-01-17T12:50:40.511Z,10.00
2023-01-17T12:53:07.228Z,10.57
2023-01-17T12:55:40.548Z,10.63
2023-01-17T12:58:19.532Z,11.07
2023-01-17T13:00:52.409Z,11.07
2023-01-17T13:03:49.335Z,11.33
2023-01-17T13:06:26.904Z,11.57
2023-01-17T13:08:58.179Z,10.67
2023-01-17T13:11:30.923Z,10.57
2023-01-17T13:13:59.895Z,11.60
2023-01-17T13:17:11.592Z,11.23
2023-01-17T13:19:55.962Z,10.63
2023-01-17T13:22:26.991Z,10.43
2023-01-17T13:25:09.326Z,11.67
2023-01-17T13:27:46.781Z,11.17
2023-01-17T13:30:26.524Z,11.20
2023-01-17T13:33:10.551Z,9.37
2023-01-17T13:36:01.807Z,9.17
2023-01-17T13:38:54.987Z,9.70
2023-01-17T13:41:42.860Z,10.67
2023-01-17T13:44:27.458Z,9.07
2023-01-17T13:47:02.580Z,9.40
2023-01-17T13:49:29.658Z,8.20
2023-01-17T13:52:22.649Z,8.77
2023-01-17T13:54:54.883Z,9.47
2023-01-17T13:57:32.865Z,8.77
2023-01-17T14:00:36.642Z,8.47
2023-01-17T14:03:03.502Z,8.27
2023-01-17T14:05:30.629Z,8.73
2023-01-17T14:08:13.135Z,8.17
2023-01-17T14:10:48.291Z,9.20
2023-01-17T14:13:35.651Z,8.77
2023-01-17T14:16:05.862Z,8.57
2023-01-17T14:18:41.853Z,8.67
2023-01-17T14:21:18.975Z,8.83
2023-01-17T14:23:58.469Z,8.77
2023-01-17T14:26:45.742Z,8.63
2023-01-17T14:29:56.866Z,8.33
2023-01-17T14:32:40.587Z,8.63
2023-01-17T14:35:22.217Z,7.87
2023-01-17T14:38:02.977Z,8.60
2023-01-17T14:40:39.549Z,7.70
2023-01-17T14:43:15.758Z,9.00
2023-01-17T14:45:43.631Z,7.43
2023-01-17T14:48:19.890Z,8.07
2023-01-17T14:50:49.328Z,7.37
2023-01-17T14:53:22.312Z,9.37
2023-01-17T14:55:49.064Z,8.77
2023-01-17T14:58:20.362Z,9.33
2023-01-17T15:00:50.186Z,9.50
2023-01-17T15:03:17.465Z,8.60
2023-01-17T15:05:48.645Z,8.03
2023-01-17T15:08:22.293Z,8.43
2023-01-17T15:10:58.879Z,9.90
2023-01-17T15:13:43.842Z,9.37
2023-01-17T15:16:25.004Z,8.50
2023-01-17T15:18:54.014Z,9.13
2023-01-17T15:21:26.946Z,8.50
2023-01-17T15:23:56.481Z,9.53
2023-01-17T15:26:29.895Z,8.90
2023-01-17T15:29:28.318Z,8.23
2023-01-17T15:32:06.481Z,9.00
2023-01-17T15:34:36.723Z,8.87
2023-01-17T15:37:21.608Z,9.00
2023-01-17T15:39:48.659Z,8.40
2023-01-17T15:42:31.438Z,8.80
2023-01-17T15:45:05.807Z,9.97
2023-01-17T15:47:38.655Z,10.00
2023-01-17T15:50:32.553Z,10.27
2023-01-17T15:53:05.534Z,9.90
2023-01-17T15:55:34.406Z,10.40
2023-01-17T15:58:02.339Z,10.57
2023-01-17T16:00:39.713Z,10.63
2023-01-17T16:03:24.835Z,11.87
2023-01-17T16:05:54.906Z,10.77
2023-01-17T16:08:33.916Z,10.07
2023-01-17T16:11:03.061Z,11.43
2023-01-17T16:13:32.161Z,11.40
2023-01-17T16:16:12.111Z,10.53
2023-01-17T16:18:40.375Z,7.93
2023-01-17T16:21:25.472Z,8.93
2023-01-17T16:23:53.054Z,9.30
2023-01-17T16:26:20.154Z,8.83
2023-01-17T16:28:47.879Z,8.27
2023-01-17T16:31:15.324Z,7.53
2023-01-17T16:33:42.534Z,8.33
2023-01-17T16:36:16.568Z,7.87
2023-01-17T16:38:45.227Z,8.73
2023-01-17T16:41:12.393Z,7.90
2023-01-17T16:43:39.832Z,8.23
2023-01-17T16:46:07.089Z,8.77
2023-01-17T16:48:33.996Z,9.00
2023-01-17T16:51:06.113Z,9.53
2023-01-17T16:53:32.966Z,14.63
2023-01-17T16:56:08.416Z,16.83
2023-01-17T16:58:35.527Z,13.60
2023-01-17T17:01:02.432Z,12.60
2023-01-17T17:03:30.018Z,11.37
2023-01-17T17:05:58.766Z,12.33
2023-01-17T17:08:26.239Z,14.23
2023-01-17T17:10:53.662Z,19.77
2023-01-17T17:13:20.696Z,19.10
2023-01-17T17:15:51.095Z,18.70
2023-01-17T17:18:19.340Z,18.00
2023-01-17T17:20:47.094Z,15.73
2023-01-17T17:23:14.253Z,12.83
2023-01-17T17:25:41.077Z,11.47
2023-01-17T17:28:09.526Z,11.40
2023-01-17T17:30:36.639Z,12.70
2023-01-17T17:33:05.014Z,11.47
2023-01-17T17:35:35.356Z,10.70
2023-01-17T17:38:02.736Z,10.73
2023-01-17T17:40:29.764Z,9.30
2023-01-17T17:42:56.818Z,9.57
2023-01-17T17:45:26.745Z,9.47
2023-01-17T17:47:54.378Z,9.27
2023-01-17T17:50:21.359Z,9.87
2023-01-17T17:52:48.791Z,10.23
2023-01-17T17:55:19.060Z,10.10
2023-01-17T17:57:46.463Z,10.33
2023-01-17T18:00:13.747Z,10.97
2023-01-17T18:02:40.812Z,10.00
2023-01-17T18:05:07.879Z,11.67
2023-01-17T18:07:34.760Z,10.97
2023-01-17T18:10:06.733Z,11.80
2023-01-17T18:12:33.879Z,11.20
2023-01-17T18:15:00.878Z,11.10
2023-01-17T18:17:27.900Z,11.17
2023-01-17T18:19:54.760Z,11.10
2023-01-17T18:22:21.751Z,11.80
2023-01-17T18:24:48.834Z,12.23
2023-01-17T18:27:15.803Z,13.53
2023-01-17T18:29:42.564Z,12.17
2023-01-17T18:32:09.360Z,13.53
2023-01-17T18:34:41.402Z,13.03
2023-01-17T18:37:08.592Z,13.50
2023-01-17T18:39:35.509Z,13.13
2023-01-17T18:42:02.484Z,14.00
2023-01-17T18:44:30.155Z,12.30
2023-01-17T18:47:04.460Z,13.00
2023-01-17T18:49:33.895Z,13.43
2023-01-17T18:52:01.398Z,14.40
2023-01-17T18:54:28.320Z,24.47
2023-01-17T18:56:56.459Z,14.53
2023-01-17T18:59:23.588Z,14.87
2023-01-17T19:01:50.679Z,14.73
2023-01-17T19:04:18.308Z,15.10
2023-01-17T19:06:47.351Z,14.90
2023-01-17T19:09:15.721Z,15.30
2023-01-17T19:11:44.855Z,14.87
2023-01-17T19:14:12.805Z,14.30
2023-01-17T19:16:41.092Z,14.33
2023-01-17T19:19:11.109Z,13.37
2023-01-17T19:21:38.632Z,13.40
2023-01-17T19:24:06.746Z,13.67
2023-01-17T19:26:34.309Z,15.03
2023-01-17T19:29:03.914Z,13.33
2023-01-17T19:31:35.923Z,14.23
2023-01-17T19:34:02.795Z,13.67
2023-01-17T19:36:33.867Z,13.37
2023-01-17T19:39:05.889Z,14.60
2023-01-17T19:41:35.784Z,12.70
2023-01-17T19:44:08.216Z,13.67
2023-01-17T19:46:38.574Z,12.70
2023-01-17T19:49:07.753Z,12.00
2023-01-17T19:51:36.020Z,13.27
2023-01-17T19:54:04.226Z,13.30
2023-01-17T19:56:32.011Z,13.30
2023-01-17T19:59:01.689Z,14.13
2023-01-17T20:01:31.787Z,13.57
2023-01-17T20:03:59.785Z,13.90
2023-01-17T20:06:29.207Z,12.67
2023-01-17T20:08:56.514Z,13.20
2023-01-17T20:11:28.293Z,13.63
2023-01-17T20:13:57.786Z,13.93
2023-01-17T20:16:27.042Z,13.30
2023-01-17T20:18:54.127Z,13.60
2023-01-17T20:21:24.378Z,13.27
2023-01-17T20:23:52.610Z,12.87
2023-01-17T20:26:22.368Z,13.70
2023-01-17T20:28:52.129Z,12.67
2023-01-17T20:31:21.866Z,13.97
2023-01-17T20:33:51.020Z,12.63
2023-01-17T20:36:19.873Z,13.13
2023-01-17T20:38:48.766Z,14.00
2023-01-17T20:41:33.347Z,14.10
2023-01-17T20:44:02.415Z,12.20
2023-01-17T20:46:35.401Z,12.50
2023-01-17T20:49:06.152Z,13.47
2023-01-17T20:51:40.795Z,13.03
2023-01-17T20:54:10.987Z,13.63
2023-01-17T20:56:38.565Z,12.70
2023-01-17T20:59:12.298Z,12.77
2023-01-17T21:01:39.719Z,13.40
2023-01-17T21:04:10.614Z,12.13
2023-01-17T21:06:40.089Z,13.63
2023-01-17T21:09:08.987Z,12.47
2023-01-17T21:11:37.033Z,12.50
2023-01-17T21:14:05.988Z,12.93
2023-01-17T21:16:34.254Z,12.77
2023-01-17T21:19:02.107Z,12.97
2023-01-17T21:21:29.567Z,12.80
2023-01-17T21:23:59.059Z,12.90
2023-01-17T21:26:27.835Z,13.20
2023-01-17T21:28:56.332Z,12.87
2023-01-17T21:31:27.762Z,14.50
2023-01-17T21:33:54.801Z,15.50
2023-01-17T21:36:26.146Z,12.67
2023-01-17T21:38:56.978Z,12.47
2023-01-17T21:41:27.640Z,13.10
2023-01-17T21:44:00.210Z,11.80
2023-01-17T21:46:28.679Z,12.00
2023-01-17T21:48:59.340Z,11.90
2023-01-17T21:51:46.644Z,12.10
2023-01-17T21:54:13.942Z,12.23
2023-01-17T21:56:59.295Z,12.37
2023-01-17T21:59:28.113Z,12.07
2023-01-17T22:01:55.100Z,12.03
2023-01-17T22:04:22.354Z,11.83
2023-01-17T22:06:49.692Z,11.93
2023-01-17T22:09:18.968Z,12.83
2023-01-17T22:11:46.300Z,12.63
2023-01-17T22:14:13.693Z,12.07
2023-01-17T22:16:41.497Z,12.63
2023-01-17T22:19:11.918Z,12.10
2023-01-17T22:21:40.459Z,12.87
2023-01-17T22:24:08.062Z,12.40
2023-01-17T22:26:35.254Z,11.30
2023-01-17T22:29:02.666Z,11.97
2023-01-17T22:31:30.193Z,12.23
2023-01-17T22:34:02.685Z,12.40
2023-01-17T22:36:34.293Z,14.17
2023-01-17T22:39:01.522Z,13.83
2023-01-17T22:41:30.310Z,12.93
2023-01-17T22:43:59.988Z,13.47
2023-01-17T22:46:30.540Z,12.90
2023-01-17T22:48:59.537Z,13.17
2023-01-17T22:51:29.289Z,12.20
2023-01-17T22:53:59.127Z,13.40
2023-01-17T22:56:32.475Z,12.17
2023-01-17T22:59:00.846Z,12.23
2023-01-17T23:01:30.708Z,12.17
2023-01-17T23:04:05.537Z,12.50
2023-01-17T23:06:37.749Z,10.67
2023-01-17T23:09:08.511Z,12.40
2023-01-17T23:11:39.893Z,11.67
2023-01-17T23:14:18.021Z,12.60
2023-01-17T23:17:08.052Z,12.37
2023-01-17T23:19:39.162Z,12.23
2023-01-17T23:22:21.907Z,12.30
2023-01-17T23:24:52.892Z,12.07
2023-01-17T23:27:42.052Z,11.50
2023-01-17T23:30:34.853Z,12.93
2023-01-17T23:33:13.300Z,12.33
2023-01-17T23:35:42.731Z,12.60
2023-01-17T23:38:26.642Z,12.57
2023-01-17T23:41:17.945Z,12.33
2023-01-17T23:43:49.495Z,13.03
2023-01-17T23:46:16.994Z,11.77
2023-01-17T23:48:44.024Z,11.17
2023-01-17T23:51:11.384Z,11.43
2023-01-17T23:53:39.129Z,12.27
2023-01-17T23:56:20.946Z,11.47
2023-01-17T23:58:48.027Z,11.17
